< < Back
Terminal Aerodrome Forecast


Current Version              Previous Versions:   1  2  3  4  5  6  7  8  9  

Terminal Aerodrome Forecast

847
FTUS42 KCAE 290230 AAA
TAFAGS
TAF AMD
KAGS 290230Z 2902/2924 14005KT P6SM BKN150
     FM291100 00000KT 4SM BR BKN015
     FM291500 04008KT P6SM BKN035
     FM292100 06005KT P6SM SCT060 SCT250=

Latest METAR

074
SAUS70 KWBC 282000 RRV
MTRAGS
METAR KAGS 290253Z 15003KT 10SM CLR 26/22 A3009 RMK AO2 SLP187 T02560222
51021


USA.gov is the U.S. government's official web portal to all federal, state and local government web resources and services.